Home   Weather   France   Paris   Past weeks
Flag for France

Past Weather in Paris, Paris, France — Yesterday and Last 2 Weeks

Currently: 63 °F. Clear. (Weather station: Villacoublay, France). See more current weather

Past Weather in Paris — Graph

°F

Paris Temperature Yesterday

Maximum temperature yesterday: 79 °F (at 5:00 pm)
Minimum temperature yesterday: 63 °F (at 6:30 pm)
Average temperature yesterday: 68 °F

High & Low Weather Summary for the Past Weeks

 TemperatureHumidityPressure
High93 °F (Aug 3, 5:00 pm)94% (Aug 5, 3:00 am)30.33 "Hg (Aug 5, 3:00 am)
Low57 °F (Aug 6, 5:30 am)19% (Aug 13, 6:00 pm)29.68 "Hg (Aug 15, 6:30 am)
Average73 °F51%30.03 "Hg
* Reported Aug 1 11:00 pm — Aug 16 10:30 pm, Paris. Weather by CustomWeather, © 2022

Note: Actual official high and low records may vary slightly from our data, if they occured in-between our weather recording intervals... More about our weather records

Paris Weather History for the Previous 24 Hours

Scroll right to see more
 ConditionsComfort  
Time TempWeatherWind HumidityBarometerVisibility
10:30 pm
Tue, Aug 16
64 °FClear.2 mph88%29.83 "HgN/A
10:00 pm64 °FClear.3 mph94%29.80 "HgN/A
9:30 pm64 °FClear.2 mph88%29.80 "HgN/A
9:00 pm64 °FSunny.2 mph88%29.80 "HgN/A
8:30 pm64 °FSunny.7 mph88%29.80 "HgN/A
8:00 pm64 °FSunny.8 mph88%29.77 "HgN/A
7:00 pm63 °FBroken clouds.3 mph88%29.80 "Hg4 mi
6:30 pm63 °FBroken clouds.12 mph88%29.83 "Hg1 mi
6:00 pm70 °FThunderstorms. Broken clouds.12 mph73%29.77 "HgN/A
5:30 pm79 °FThunderstorms. Partly sunny.5 mph58%29.77 "HgN/A
5:00 pm79 °FBroken clouds.7 mph58%29.80 "HgN/A
3:00 pm75 °FPartly sunny.3 mph61%29.80 "HgN/A
2:30 pm75 °FMostly cloudy.6 mph65%29.80 "HgN/A
2:00 pm75 °FMostly cloudy.8 mph61%29.80 "HgN/A
1:00 pm73 °FPartly sunny.8 mph65%29.80 "HgN/A
12:30 pm73 °FBroken clouds.8 mph61%29.80 "HgN/A
12:00 pm73 °FBroken clouds.6 mph65%29.80 "HgN/A
11:30 am73 °FBroken clouds.9 mph65%29.80 "HgN/A
10:30 am70 °FPassing clouds.5 mph73%29.80 "HgN/A
10:00 am68 °FSunny.3 mph78%29.80 "Hg10 mi
9:30 am66 °FSunny.3 mph83%29.80 "Hg10 mi
9:00 am66 °FPassing clouds.3 mph78%29.80 "HgN/A
8:00 am64 °FSunny.2 mph83%29.77 "Hg10 mi
7:00 am64 °FSunny.3 mph83%29.77 "Hg10 mi
6:30 am64 °FClear.2 mph83%29.77 "Hg10 mi
6:00 am64 °FClear.2 mph83%29.77 "Hg10 mi
5:30 am64 °FClear.2 mph88%29.77 "Hg10 mi
5:00 am64 °FClear.No wind83%29.74 "Hg10 mi
4:30 am64 °FClear.No wind83%29.77 "Hg10 mi
4:00 am64 °FClear.5 mph83%29.77 "Hg10 mi
3:30 am66 °FClear.6 mph78%29.77 "Hg10 mi
3:00 am64 °FPassing clouds.5 mph83%29.77 "HgN/A
1:30 am66 °FClear.2 mph78%29.77 "Hg10 mi
1:00 am68 °FClear.3 mph73%29.77 "Hg10 mi
12:30 am66 °FClear.2 mph78%29.77 "Hg10 mi
12:00 am68 °FClear.5 mph73%29.77 "Hg10 mi
Weather by CustomWeather, © 2022

See weather overview